Time;durP1;ratioP1;P1;durP2;ratioP2;P2;SDS_P1;SDS_P2;PMS_P1;PMS_P2;Temp;Humidity;BMP_temperature;BMP_pressure;BME280_temperature;BME280_humidity;BME280_pressure;Samples;Min_cycle;Max_cycle;Signal;HPM_P1;HPM_P2
2021/12/23 00:00:32;;;;;;;8.13;5.40;;;;;;;-0.17;81.63;101731.19;4975429;28;100564;-42
2021/12/23 00:02:57;;;;;;;5.55;3.25;;;;;;;-0.18;81.63;101731.22;4976458;28;96773;-44
2021/12/23 00:05:23;;;;;;;3.15;2.60;;;;;;;-0.13;81.59;101737.41;4977518;28;106619;-42
2021/12/23 00:07:48;;;;;;;8.77;2.75;;;;;;;-0.18;81.75;101726.78;4976967;28;101563;-42
2021/12/23 00:10:13;;;;;;;14.27;4.40;;;;;;;-0.26;81.69;101734.78;4976814;28;107452;-42
2021/12/23 00:12:45;;;;;;;4.03;2.22;;;;;;;-0.26;81.32;101745.44;4977231;28;96558;-42
2021/12/23 00:15:23;;;;;;;4.90;2.42;;;;;;;-0.23;80.15;101760.53;4975975;28;96852;-42
2021/12/23 00:23:48;;;;;;;3.83;2.72;;;;;;;-0.09;81.25;101758.72;4977002;28;96590;-42
2021/12/23 00:25:49;;;;;;;4.50;2.63;;;;;;;-0.27;81.07;101729.47;4982763;28;96868;-43
2021/12/23 00:28:15;;;;;;;2.15;1.67;;;;;;;-0.11;80.77;101764.94;4975591;28;101139;-43
2021/12/23 00:30:40;;;;;;;1.80;1.30;;;;;;;-0.16;80.43;101756.06;4977177;28;97831;-42
2021/12/23 00:33:05;;;;;;;7.05;3.08;;;;;;;-0.23;80.84;101736.56;4976260;28;111622;-42
2021/12/23 00:35:31;;;;;;;4.22;2.15;;;;;;;-0.28;80.55;101723.25;4977382;28;96725;-42
2021/12/23 00:38:01;;;;;;;2.13;1.92;;;;;;;-0.20;80.39;101741.88;4976015;28;96783;-43
2021/12/23 00:40:27;;;;;;;4.25;2.83;;;;;;;-0.18;81.10;101736.56;4976433;28;99216;-42
2021/12/23 00:42:53;;;;;;;5.57;3.67;;;;;;;-0.22;81.09;101735.66;4975712;28;96635;-42
2021/12/23 00:45:19;;;;;;;4.40;3.65;;;;;;;-0.27;80.67;101729.47;4977105;28;96772;-42
2021/12/23 00:47:44;;;;;;;2.97;2.30;;;;;;;-0.37;80.85;101693.13;4975251;28;100796;-42
2021/12/23 00:50:10;;;;;;;2.80;2.15;;;;;;;-0.23;80.85;101713.47;4976299;28;105197;-42
2021/12/23 00:52:37;;;;;;;3.53;2.45;;;;;;;-0.21;81.32;101689.53;4976624;28;96591;-42
2021/12/23 00:55:05;;;;;;;2.30;1.80;;;;;;;-0.30;80.83;101681.56;4975793;28;96681;-42
2021/12/23 00:57:35;;;;;;;3.60;2.42;;;;;;;-0.32;81.25;101672.69;4975025;28;100814;-42
2021/12/23 01:00:01;;;;;;;5.95;4.25;;;;;;;-0.36;81.35;101673.59;4975876;28;99779;-42
2021/12/23 01:02:30;;;;;;;7.47;4.30;;;;;;;-0.37;81.49;101661.19;4975502;28;105346;-42
2021/12/23 01:04:56;;;;;;;3.22;2.30;;;;;;;-0.33;81.50;101663.84;4976424;28;96754;-42
2021/12/23 01:07:22;;;;;;;4.03;3.35;;;;;;;-0.48;81.49;101640.81;4974798;28;101032;-42
2021/12/23 01:09:47;;;;;;;6.75;4.40;;;;;;;-0.33;81.74;101685.13;4976250;28;97484;-42
2021/12/23 01:12:16;;;;;;;5.55;3.30;;;;;;;-0.34;81.25;101678.00;4976616;28;96488;-42
2021/12/23 01:14:53;;;;;;;4.68;2.50;;;;;;;-0.47;81.34;101669.19;4975068;28;96873;-42
2021/12/23 01:19:51;;;;;;;2.95;1.25;;;;;;;-0.52;81.42;101660.34;4976473;28;97458;-42
2021/12/23 01:22:17;;;;;;;2.53;2.22;;;;;;;-0.44;81.78;101682.47;4976281;28;96720;-42
2021/12/23 01:24:43;;;;;;;5.00;2.97;;;;;;;-0.42;81.74;101679.81;4974945;28;96792;-42
2021/12/23 01:27:08;;;;;;;1.67;1.50;;;;;;;-0.53;81.61;101650.56;4975657;28;97992;-42
2021/12/23 01:29:33;;;;;;;3.00;2.20;;;;;;;-0.53;81.66;101652.34;4975835;28;97833;-42
2021/12/23 01:32:02;;;;;;;2.85;2.13;;;;;;;-0.50;81.79;101655.91;4975930;28;96628;-42
2021/12/23 01:34:28;;;;;;;10.75;5.10;;;;;;;-0.53;81.84;101641.72;4976018;28;96783;-42
2021/12/23 01:36:53;;;;;;;2.55;1.88;;;;;;;-0.45;81.42;101662.09;4976182;28;97424;-42
2021/12/23 01:39:18;;;;;;;4.55;3.90;;;;;;;-0.47;81.28;101661.22;4975922;28;97282;-42
2021/12/23 01:41:44;;;;;;;10.55;3.80;;;;;;;-0.56;81.42;101649.72;4975815;28;99709;-42
2021/12/23 01:44:09;;;;;;;4.28;2.47;;;;;;;-0.50;81.35;101666.56;4976436;28;96757;-42
2021/12/23 01:46:34;;;;;;;1.58;1.35;;;;;;;-0.66;81.55;101646.19;4975468;28;103168;-42
2021/12/23 01:49:00;;;;;;;4.88;2.72;;;;;;;-0.55;81.40;101660.38;4975659;28;106432;-42
2021/12/23 01:51:25;;;;;;;7.88;5.60;;;;;;;-0.49;81.88;101660.31;4975258;28;96681;-42
2021/12/23 01:53:50;;;;;;;1.38;1.02;;;;;;;-0.62;81.41;101642.66;4975773;28;96817;-42
2021/12/23 01:56:17;;;;;;;4.45;2.55;;;;;;;-0.54;81.74;101664.78;4975478;28;97871;-42
2021/12/23 01:58:43;;;;;;;4.43;2.38;;;;;;;-0.65;81.86;101647.94;4973630;28;100927;-42
2021/12/23 02:01:10;;;;;;;4.40;3.00;;;;;;;-0.58;81.82;101648.81;4975919;28;96567;-42
2021/12/23 02:03:37;;;;;;;4.63;2.00;;;;;;;-0.68;82.10;101629.34;4974273;28;97006;-42
2021/12/23 02:06:02;;;;;;;1.73;1.63;;;;;;;-0.74;81.85;101624.03;4974317;28;100581;-42
2021/12/23 02:08:28;;;;;;;5.80;4.10;;;;;;;-0.76;82.03;101621.41;4975796;28;97733;-42
2021/12/23 02:10:55;;;;;;;2.40;1.95;;;;;;;-0.77;82.00;101622.25;4974782;28;116923;-42
2021/12/23 02:13:30;;;;;;;2.05;1.48;;;;;;;-0.77;82.48;101630.25;4973474;28;97019;-42
2021/12/23 02:15:56;;;;;;;1.88;1.63;;;;;;;-0.92;82.55;101591.28;4973336;28;101334;-42
2021/12/23 02:18:21;;;;;;;3.78;2.47;;;;;;;-0.81;82.30;101601.00;4975381;28;96656;-42
2021/12/23 02:20:47;;;;;;;2.90;1.75;;;;;;;-0.85;82.43;101586.84;4975597;28;96715;-42
2021/12/23 02:23:12;;;;;;;7.03;3.90;;;;;;;-0.78;82.65;101603.66;4974138;28;96849;-43
2021/12/23 02:25:38;;;;;;;5.40;3.33;;;;;;;-0.74;82.86;101603.66;4975312;28;97929;-43
2021/12/23 02:28:07;;;;;;;1.35;1.13;;;;;;;-0.93;83.17;101577.97;4975106;28;98076;-43
2021/12/23 02:30:35;;;;;;;8.60;3.50;;;;;;;-0.89;83.06;101574.44;4973809;28;96541;-42
2021/12/23 02:33:01;;;;;;;2.72;0.50;;;;;;;-0.81;83.53;101580.63;4974320;28;96924;-43
2021/12/23 02:35:27;;;;;;;7.22;2.10;;;;;;;-0.92;83.40;101567.34;4975107;28;97764;-42
2021/12/23 02:37:53;;;;;;;9.23;3.60;;;;;;;-0.95;83.45;101563.81;4975220;28;97245;-43
2021/12/23 02:40:27;;;;;;;6.35;3.90;;;;;;;-0.96;83.71;101564.69;4973342;28;96753;-43
2021/12/23 02:42:53;;;;;;;7.38;5.30;;;;;;;-0.88;83.79;101577.09;4975001;28;96748;-43
2021/12/23 02:45:19;;;;;;;6.00;2.00;;;;;;;-0.95;83.69;101572.69;4974754;28;99125;-43
2021/12/23 02:47:44;;;;;;;4.78;2.97;;;;;;;-0.95;84.34;101558.50;4975067;28;97905;-42
2021/12/23 02:50:10;;;;;;;6.47;3.17;;;;;;;-0.90;84.48;101568.22;4975226;28;96683;-42
2021/12/23 02:52:36;;;;;;;5.53;4.22;;;;;;;-0.88;84.23;101574.44;4975432;28;96833;-42
2021/12/23 02:55:04;;;;;;;7.32;4.93;;;;;;;-0.87;84.42;101570.88;4973348;28;99460;-43
2021/12/23 02:57:33;;;;;;;4.85;4.35;;;;;;;-0.88;84.72;101574.44;4973568;28;100671;-43
2021/12/23 02:59:59;;;;;;;7.78;4.85;;;;;;;-0.93;84.56;101557.63;4973076;28;96737;-43
2021/12/23 03:02:25;;;;;;;18.60;6.45;;;;;;;-0.99;84.64;101541.66;4973607;28;96817;-43
2021/12/23 03:04:50;;;;;;;11.73;8.50;;;;;;;-1.03;85.32;101523.94;4974260;28;97882;-42
2021/12/23 03:07:16;;;;;;;10.55;5.15;;;;;;;-0.89;84.57;101534.53;4973695;28;126836;-42
2021/12/23 03:09:45;;;;;;;4.60;2.33;;;;;;;-0.94;84.70;101539.88;4974895;28;96699;-42
2021/12/23 03:12:11;;;;;;;6.38;4.80;;;;;;;-0.93;85.20;101551.38;4973279;28;96872;-42
2021/12/23 03:14:36;;;;;;;3.45;2.53;;;;;;;-0.90;84.85;101548.75;4974853;28;97565;-42
2021/12/23 03:17:02;;;;;;;6.60;4.55;;;;;;;-0.93;84.71;101544.31;4974641;28;97879;-42
2021/12/23 03:19:27;;;;;;;13.93;5.55;;;;;;;-0.90;84.65;101543.44;4974647;28;96399;-42
2021/12/23 03:21:53;;;;;;;10.85;5.80;;;;;;;-0.91;84.90;101539.84;4975404;28;96756;-42
2021/12/23 03:24:19;;;;;;;7.95;2.75;;;;;;;-1.06;84.97;101508.00;4974818;28;97411;-42
2021/12/23 03:26:45;;;;;;;6.18;2.63;;;;;;;-1.01;84.77;101511.53;4977786;28;97899;-42
2021/12/23 03:29:11;;;;;;;10.23;4.15;;;;;;;-0.92;84.72;101514.16;4977692;28;96563;-42
2021/12/23 03:31:37;;;;;;;8.30;5.53;;;;;;;-0.94;85.05;101515.94;4977969;28;96810;-42
2021/12/23 03:34:02;;;;;;;16.80;5.72;;;;;;;-0.96;84.94;101504.44;4976291;28;100725;-42
2021/12/23 03:36:28;;;;;;;10.77;4.18;;;;;;;-0.87;84.93;101523.00;4977818;28;97878;-42
2021/12/23 03:38:53;;;;;;;1.58;1.27;;;;;;;-0.95;85.53;101492.91;4976929;28;116588;-42
2021/12/23 03:41:18;;;;;;;8.35;5.18;;;;;;;-0.94;85.52;101491.13;4977927;28;96889;-42
2021/12/23 03:43:44;;;;;;;7.03;3.28;;;;;;;-0.99;85.68;101495.59;4977212;28;114668;-42
2021/12/23 03:46:09;;;;;;;4.88;2.72;;;;;;;-0.90;85.65;101495.56;4978154;28;97830;-42
2021/12/23 03:48:34;;;;;;;7.32;4.38;;;;;;;-0.89;85.27;101479.56;4977879;28;96725;-42
2021/12/23 03:51:00;;;;;;;6.13;2.45;;;;;;;-0.87;85.45;101476.94;4977136;28;112187;-43
2021/12/23 03:53:25;;;;;;;6.47;4.15;;;;;;;-0.99;85.57;101461.91;4976766;28;99229;-43
2021/12/23 03:55:51;;;;;;;12.52;6.25;;;;;;;-1.00;85.59;101454.84;4976817;28;99116;-43
2021/12/23 03:58:16;;;;;;;9.23;5.47;;;;;;;-0.92;85.56;101458.31;4976345;28;96555;-43
2021/12/23 04:00:43;;;;;;;11.05;4.43;;;;;;;-1.05;85.55;101448.63;4977521;28;96828;-43
2021/12/23 04:03:09;;;;;;;22.08;7.38;;;;;;;-0.85;85.54;101485.78;4975920;28;99878;-43
2021/12/23 04:05:34;;;;;;;8.20;3.08;;;;;;;-0.87;85.78;101499.06;4977041;28;99284;-42
2021/12/23 04:07:59;;;;;;;7.82;3.28;;;;;;;-0.94;86.22;101477.84;4977352;28;96658;-43
2021/12/23 04:10:25;;;;;;;6.10;2.75;;;;;;;-0.83;85.66;101472.47;4976677;28;110275;-43
2021/12/23 04:12:51;;;;;;;14.70;7.05;;;;;;;-0.77;85.68;101499.03;4977287;28;97845;-43
2021/12/23 04:15:17;;;;;;;2.78;2.55;;;;;;;-0.87;85.30;101483.13;4975711;28;100935;-43
2021/12/23 04:17:43;;;;;;;4.00;2.78;;;;;;;-0.70;85.32;101501.66;4975665;28;96619;-43
2021/12/23 04:20:16;;;;;;;13.00;6.63;;;;;;;-0.80;85.48;101477.78;4976050;28;96876;-42
2021/12/23 04:22:44;;;;;;;8.35;3.72;;;;;;;-0.76;85.73;101487.50;4976957;28;99335;-43
2021/12/23 04:25:10;;;;;;;8.75;3.80;;;;;;;-0.69;85.41;101494.56;4975670;28;100695;-43
2021/12/23 04:27:36;;;;;;;1.90;1.77;;;;;;;-0.62;85.58;101487.44;4976040;28;96565;-43
2021/12/23 04:30:06;;;;;;;2.90;1.75;;;;;;;-0.67;85.81;101472.41;4977421;28;96858;-43
2021/12/23 04:32:31;;;;;;;6.63;3.50;;;;;;;-0.74;85.45;101451.13;4976787;28;99185;-42
2021/12/23 04:34:57;;;;;;;5.88;3.53;;;;;;;-0.65;85.47;101473.25;4977377;28;97812;-42
2021/12/23 04:37:22;;;;;;;18.45;2.03;;;;;;;-0.76;85.60;101453.84;4976675;28;96454;-43
2021/12/23 04:39:48;;;;;;;14.30;6.65;;;;;;;-0.68;85.36;101465.31;4975913;28;116996;-43
2021/12/23 04:42:13;;;;;;;3.35;2.10;;;;;;;-0.74;85.52;101443.16;4974972;28;126821;-43
2021/12/23 04:44:38;;;;;;;4.78;1.77;;;;;;;-0.72;85.74;101446.69;4975951;28;119724;-43
2021/12/23 04:47:04;;;;;;;10.75;3.72;;;;;;;-0.73;85.65;101435.19;4977174;28;96525;-43
2021/12/23 04:49:29;;;;;;;2.88;2.03;;;;;;;-0.61;85.83;101447.53;4977055;28;96856;-43
2021/12/23 04:51:54;;;;;;;6.93;2.95;;;;;;;-0.64;85.91;101450.22;4975896;28;112850;-43
2021/12/23 04:54:20;;;;;;;5.68;2.67;;;;;;;-0.64;85.97;101450.22;4976224;28;107950;-43
2021/12/23 04:56:45;;;;;;;5.38;3.90;;;;;;;-0.61;85.69;101455.50;4976704;28;96584;-42
2021/12/23 04:59:10;;;;;;;4.45;2.40;;;;;;;-0.60;86.13;101453.72;4976782;28;96936;-43
2021/12/23 05:01:35;;;;;;;8.65;4.63;;;;;;;-0.68;85.63;101438.69;4976554;28;97367;-43
2021/12/23 05:04:01;;;;;;;3.40;1.75;;;;;;;-0.66;85.86;101431.59;4976203;28;99496;-43
2021/12/23 05:06:26;;;;;;;2.88;1.95;;;;;;;-0.63;86.10;101436.00;4976282;28;96677;-42
2021/12/23 05:08:52;;;;;;;6.60;3.03;;;;;;;-0.64;85.73;101434.25;4975166;28;96738;-43
2021/12/23 05:11:17;;;;;;;9.68;2.50;;;;;;;-0.60;85.64;101429.78;4976270;28;98326;-43
2021/12/23 05:13:47;;;;;;;7.32;3.85;;;;;;;-0.69;85.98;101418.31;4976192;28;98701;-42
2021/12/23 05:16:13;;;;;;;6.43;3.80;;;;;;;-0.62;85.86;101424.50;4975061;28;96807;-43
2021/12/23 05:18:38;;;;;;;10.02;3.05;;;;;;;-0.61;85.92;101422.72;4976712;28;96741;-42
2021/12/23 05:21:05;;;;;;;3.72;3.10;;;;;;;-0.65;85.51;101408.53;4975077;28;126711;-43
2021/12/23 05:23:30;;;;;;;8.52;4.20;;;;;;;-0.59;85.83;101421.81;4976331;28;97831;-42
2021/12/23 05:25:56;;;;;;;8.18;3.65;;;;;;;-0.57;86.17;101416.47;4975520;28;117522;-42
2021/12/23 05:28:21;;;;;;;10.52;6.50;;;;;;;-0.66;85.98;101398.81;4975633;28;107963;-42
2021/12/23 05:30:46;;;;;;;7.30;4.65;;;;;;;-0.67;85.97;101392.59;4975210;28;106959;-42
2021/12/23 05:33:12;;;;;;;3.78;2.67;;;;;;;-0.64;86.39;101405.00;4975490;28;117738;-42
2021/12/23 05:35:37;;;;;;;6.88;3.33;;;;;;;-0.73;86.14;101389.97;4976249;28;96525;-42
2021/12/23 05:38:02;;;;;;;2.63;2.30;;;;;;;-0.56;86.49;101412.91;4975904;28;96829;-42
2021/12/23 05:40:29;;;;;;;3.75;2.20;;;;;;;-0.62;86.71;101403.22;4975548;28;99242;-42
2021/12/23 05:42:56;;;;;;;2.22;1.80;;;;;;;-0.60;86.23;101390.75;4975857;28;97852;-43
2021/12/23 05:45:21;;;;;;;9.10;4.72;;;;;;;-0.76;86.28;101371.38;4974751;28;96577;-42
2021/12/23 05:47:47;;;;;;;5.60;2.33;;;;;;;-0.58;86.74;101394.28;4974298;28;96917;-42
2021/12/23 05:50:15;;;;;;;17.90;5.78;;;;;;;-0.65;86.34;101381.94;4973809;28;101014;-43
2021/12/23 05:52:40;;;;;;;5.32;2.72;;;;;;;-0.60;86.39;101372.13;4974244;28;101142;-43
2021/12/23 05:55:08;;;;;;;3.30;2.20;;;;;;;-0.52;86.52;101370.31;4973901;28;96499;-43
2021/12/23 05:57:34;;;;;;;3.92;3.15;;;;;;;-0.66;86.54;101342.94;4974522;28;96775;-43
2021/12/23 06:00:00;;;;;;;5.82;3.20;;;;;;;-0.60;86.73;101371.25;4974681;28;97444;-42
2021/12/23 06:02:25;;;;;;;7.15;5.00;;;;;;;-0.51;86.16;101392.47;4975532;28;97759;-43
2021/12/23 06:04:50;;;;;;;9.93;5.13;;;;;;;-0.58;86.11;101374.81;4974757;28;97094;-44
2021/12/23 06:07:16;;;;;;;6.00;3.60;;;;;;;-0.59;86.25;101354.44;4975417;28;96796;-43
2021/12/23 06:09:41;;;;;;;3.95;2.25;;;;;;;-0.51;86.59;101356.09;4974729;28;122256;-43
2021/12/23 06:12:07;;;;;;;6.05;4.00;;;;;;;-0.52;86.93;101351.69;4975832;28;96626;-42
2021/12/23 06:14:32;;;;;;;11.45;6.60;;;;;;;-0.63;86.47;101332.25;4975407;28;96616;-42
2021/12/23 06:16:58;;;;;;;7.00;3.35;;;;;;;-0.54;87.04;101345.50;4975713;28;96812;-43
2021/12/23 06:19:23;;;;;;;4.80;1.98;;;;;;;-0.69;86.98;101322.56;4974665;28;99045;-44
2021/12/23 06:21:49;;;;;;;4.60;1.67;;;;;;;-0.57;86.76;101344.63;4975535;28;97298;-43
2021/12/23 06:24:14;;;;;;;5.90;4.35;;;;;;;-0.56;86.67;101344.63;4975264;28;97642;-42
2021/12/23 06:26:40;;;;;;;7.78;4.78;;;;;;;-0.56;87.17;101362.38;4974148;28;96906;-42
2021/12/23 06:29:05;;;;;;;9.73;3.35;;;;;;;-0.62;86.59;101360.66;4975569;28;99495;-42
2021/12/23 06:31:33;;;;;;;3.38;2.70;;;;;;;-0.53;86.67;101365.88;4974226;28;127152;-43
2021/12/23 06:33:59;;;;;;;4.78;3.33;;;;;;;-0.40;85.92;101376.44;4975535;28;96587;-44
2021/12/23 06:36:24;;;;;;;7.63;2.78;;;;;;;-0.41;85.99;101369.34;4975660;28;97067;-43
2021/12/23 06:38:49;;;;;;;3.92;2.50;;;;;;;-0.41;86.34;101359.56;4975268;28;97496;-42
2021/12/23 06:41:17;;;;;;;4.75;2.22;;;;;;;-0.47;86.63;101333.91;4974804;28;97137;-42
2021/12/23 06:43:43;;;;;;;9.25;4.03;;;;;;;-0.40;86.48;101353.38;4973420;28;96588;-42
2021/12/23 06:46:09;;;;;;;9.00;2.88;;;;;;;-0.50;86.80;101338.38;4973696;28;96823;-43
2021/12/23 06:48:34;;;;;;;4.50;3.63;;;;;;;-0.38;86.98;101343.59;4974685;28;99208;-43
2021/12/23 06:51:00;;;;;;;6.47;3.05;;;;;;;-0.36;86.63;101343.56;4974502;28;97940;-43
2021/12/23 06:53:26;;;;;;;13.65;5.57;;;;;;;-0.47;86.50;101331.25;4973748;28;96519;-42
2021/12/23 06:55:52;;;;;;;2.97;1.98;;;;;;;-0.35;86.49;101334.72;4974785;28;96932;-43
2021/12/23 06:58:18;;;;;;;18.10;3.97;;;;;;;-0.41;86.65;101305.47;4974765;28;98101;-43
2021/12/23 07:00:44;;;;;;;2.25;1.13;;;;;;;-0.45;86.84;101304.66;4973202;28;100831;-42
2021/12/23 07:03:09;;;;;;;3.60;3.00;;;;;;;-0.36;86.78;101327.59;4975217;28;96632;-42
2021/12/23 07:05:35;;;;;;;6.18;3.83;;;;;;;-0.38;86.52;101327.66;4974616;28;96796;-43
2021/12/23 07:08:09;;;;;;;5.97;3.47;;;;;;;-0.48;86.69;101312.63;4974093;28;99812;-42
2021/12/23 07:10:35;;;;;;;6.60;3.03;;;;;;;-0.40;86.37;101318.78;4973256;28;101289;-43
2021/12/23 07:13:00;;;;;;;16.67;4.35;;;;;;;-0.39;86.57;101312.56;4973397;28;97361;-42
2021/12/23 07:15:27;;;;;;;3.65;2.88;;;;;;;-0.41;86.99;101311.69;4974713;28;96815;-43
2021/12/23 07:18:02;;;;;;;0.65;0.55;;;;;;;-0.38;86.83;101321.41;4972830;28;101045;-43
2021/12/23 07:20:28;;;;;;;6.22;4.38;;;;;;;-0.32;87.11;101332.00;4974185;28;109723;-43
2021/12/23 07:22:54;;;;;;;2.00;1.20;;;;;;;-0.39;86.68;101320.53;4973506;28;96699;-42
2021/12/23 07:25:21;;;;;;;13.93;4.25;;;;;;;-0.25;86.95;101357.69;4973555;28;96883;-43
2021/12/23 07:27:46;;;;;;;6.40;4.63;;;;;;;-0.30;86.75;101347.06;4972965;28;100835;-43
2021/12/23 07:30:14;;;;;;;6.18;3.28;;;;;;;-0.20;86.97;101368.28;4974432;28;97301;-42
2021/12/23 07:32:40;;;;;;;9.75;3.22;;;;;;;-0.40;87.07;101331.22;4972833;28;97181;-42
2021/12/23 07:35:06;;;;;;;4.63;3.17;;;;;;;-0.34;86.75;101328.47;4974538;28;96792;-42
2021/12/23 07:37:31;;;;;;;5.82;3.47;;;;;;;-0.29;87.01;101332.84;4972803;28;100752;-42
2021/12/23 07:39:57;;;;;;;5.78;3.47;;;;;;;-0.25;86.48;101333.72;4974432;28;97898;-42
2021/12/23 07:42:24;;;;;;;7.68;3.42;;;;;;;-0.18;86.61;101340.75;4974540;28;96668;-42
2021/12/23 07:44:50;;;;;;;6.38;3.13;;;;;;;-0.27;87.06;101317.75;4972985;28;97686;-43
2021/12/23 07:47:16;;;;;;;5.40;3.33;;;;;;;-0.16;86.85;101323.00;4973990;28;98710;-42
2021/12/23 07:49:41;;;;;;;6.57;3.63;;;;;;;-0.22;86.66;101309.72;4973034;28;100882;-42
2021/12/23 07:52:07;;;;;;;5.50;3.67;;;;;;;-0.16;86.71;101323.00;4974337;28;96686;-42
2021/12/23 07:54:35;;;;;;;4.68;2.40;;;;;;;-0.25;86.67;101312.44;4972990;28;96874;-43
2021/12/23 07:57:00;;;;;;;12.38;6.68;;;;;;;-0.22;86.77;101307.94;4972046;28;101101;-43
2021/12/23 07:59:26;;;;;;;13.43;7.10;;;;;;;-0.18;86.50;101302.63;4973392;28;97359;-43
2021/12/23 08:01:51;;;;;;;11.07;4.65;;;;;;;-0.21;86.99;101303.53;4974165;28;96470;-43
2021/12/23 08:04:16;;;;;;;13.05;5.15;;;;;;;-0.22;86.43;101309.72;4974176;28;97071;-42
2021/12/23 08:06:42;;;;;;;10.25;3.60;;;;;;;-0.11;86.88;101312.31;4973396;28;122291;-42
2021/12/23 08:09:08;;;;;;;16.35;7.72;;;;;;;-0.19;86.96;101300.81;4974056;28;97766;-42
2021/12/23 08:11:33;;;;;;;9.98;3.95;;;;;;;-0.17;86.88;101299.03;4974675;28;96473;-43
2021/12/23 08:13:58;;;;;;;9.98;3.05;;;;;;;-0.09;87.10;101314.06;4978027;28;96828;-43
2021/12/23 08:16:24;;;;;;;4.22;3.13;;;;;;;-0.11;87.14;101304.31;4976833;28;99189;-42
2021/12/23 08:18:49;;;;;;;4.18;2.42;;;;;;;-0.19;87.29;101280.44;4976303;28;126228;-43
2021/12/23 08:21:14;;;;;;;6.00;2.67;;;;;;;-0.14;87.05;101273.28;4977011;28;96632;-43
2021/12/23 08:23:40;;;;;;;6.72;3.58;;;;;;;-0.02;86.72;101291.78;4977299;28;96710;-42
2021/12/23 08:26:11;;;;;;;16.25;6.68;;;;;;;-0.08;86.64;101285.63;4976255;28;120615;-42
2021/12/23 08:28:37;;;;;;;6.07;3.00;;;;;;;-0.01;87.04;101290.00;4975622;28;101094;-43
2021/12/23 08:31:02;;;;;;;6.45;3.13;;;;;;;-0.10;86.57;101268.78;4975613;28;96558;-43
2021/12/23 08:33:28;;;;;;;10.63;3.78;;;;;;;-0.01;86.67;101292.66;4977368;28;96701;-43
2021/12/23 08:36:06;;;;;;;14.13;5.32;;;;;;;-0.03;86.96;101283.81;4976563;28;99129;-43
2021/12/23 08:38:31;;;;;;;6.82;4.28;;;;;;;0.01;86.73;101279.34;4976261;28;126212;-43
2021/12/23 08:40:56;;;;;;;15.07;6.95;;;;;;;-0.03;86.90;101266.03;4977098;28;96825;-43
2021/12/23 08:43:22;;;;;;;5.88;3.00;;;;;;;-0.14;86.99;101235.09;4976047;28;114148;-43
2021/12/23 08:45:48;;;;;;;9.18;5.55;;;;;;;-0.16;87.10;101234.28;4974659;28;101055;-42
2021/12/23 08:48:13;;;;;;;13.30;4.47;;;;;;;-0.14;87.07;101228.03;4976311;28;99029;-43
2021/12/23 08:50:39;;;;;;;6.72;3.38;;;;;;;-0.02;87.02;101251.84;4976945;28;96600;-43
2021/12/23 08:53:04;;;;;;;12.68;4.03;;;;;;;-0.01;86.92;101245.59;4977015;28;96717;-43
2021/12/23 08:55:31;;;;;;;10.75;2.83;;;;;;;-0.07;86.84;101223.47;4976144;28;99677;-42
2021/12/23 08:57:58;;;;;;;6.30;5.25;;;;;;;0.04;86.69;101245.56;4974981;28;100871;-43
2021/12/23 09:00:26;;;;;;;5.55;4.43;;;;;;;-0.06;87.41;101222.59;4974810;28;96663;-42
2021/12/23 09:02:52;;;;;;;11.57;5.15;;;;;;;0.08;87.03;101241.97;4975650;28;96847;-43
2021/12/23 09:05:19;;;;;;;8.68;4.97;;;;;;;0.06;87.06;101229.56;4976288;28;97454;-43
2021/12/23 09:07:45;;;;;;;7.07;2.72;;;;;;;0.08;87.47;101206.47;4975053;28;100888;-42
2021/12/23 09:10:11;;;;;;;12.23;4.63;;;;;;;0.04;86.99;101194.94;4974576;28;96621;-43
2021/12/23 09:12:36;;;;;;;14.98;6.68;;;;;;;0.15;87.04;101210.81;4978510;28;96877;-43
2021/12/23 09:15:03;;;;;;;8.02;3.33;;;;;;;0.09;87.27;101189.56;4975593;28;99795;-43
2021/12/23 09:17:29;;;;;;;4.50;3.17;;;;;;;0.14;87.28;101198.38;4973045;28;101842;-43
2021/12/23 09:19:54;;;;;;;8.25;4.45;;;;;;;0.10;87.13;101184.25;4976505;28;96507;-43
2021/12/23 09:22:23;;;;;;;10.38;2.92;;;;;;;0.12;87.12;101179.78;4976261;28;96764;-42
2021/12/23 09:24:52;;;;;;;37.13;11.43;;;;;;;0.18;86.80;101186.78;4975851;28;99772;-44
2021/12/23 09:27:39;;;;;;;11.13;5.05;;;;;;;0.19;87.10;101197.44;4976233;28;97886;-42
2021/12/23 09:32:52;;;;;;;5.40;2.97;;;;;;;0.18;87.35;101197.44;4975150;28;96644;-43
2021/12/23 09:35:24;;;;;;;5.60;2.95;;;;;;;0.16;87.02;101193.91;4975324;28;96941;-43
2021/12/23 09:37:50;;;;;;;7.20;4.15;;;;;;;0.24;86.88;101189.38;4974562;28;100863;-43
2021/12/23 09:40:16;;;;;;;11.57;5.65;;;;;;;0.15;86.95;101174.41;4974829;28;96656;-43
2021/12/23 09:42:43;;;;;;;4.53;3.88;;;;;;;0.18;87.07;101168.16;4974421;28;96834;-42
2021/12/23 09:45:12;;;;;;;11.63;5.78;;;;;;;0.26;87.01;101171.56;4975776;28;98076;-42
2021/12/23 09:47:41;;;;;;;11.15;5.32;;;;;;;0.37;87.08;101180.31;4974162;28;100653;-42
2021/12/23 09:50:11;;;;;;;19.80;3.88;;;;;;;0.38;86.82;101171.44;4975722;28;96593;-43
2021/12/23 09:52:42;;;;;;;14.45;4.78;;;;;;;0.36;86.72;101169.69;4974742;28;96809;-42
2021/12/23 09:55:08;;;;;;;7.53;4.47;;;;;;;0.37;86.82;101171.44;4975671;28;97392;-43
2021/12/23 09:57:34;;;;;;;24.63;6.00;;;;;;;0.47;86.81;101174.84;4974039;28;100925;-43
2021/12/23 10:00:00;;;;;;;5.25;2.42;;;;;;;0.46;86.71;101165.97;4974844;28;96552;-42
2021/12/23 10:02:25;;;;;;;4.47;2.65;;;;;;;0.38;87.00;101142.13;4974283;28;96811;-43
2021/12/23 10:04:51;;;;;;;13.30;5.63;;;;;;;0.56;86.69;101175.59;4975541;28;97637;-42
2021/12/23 10:07:18;;;;;;;13.93;6.75;;;;;;;0.58;86.55;101173.78;4975151;28;99363;-43
2021/12/23 10:09:58;;;;;;;9.02;4.55;;;;;;;0.59;86.68;101158.66;4975649;28;96447;-42
2021/12/23 10:31:25;;;;;;;7.35;3.60;;;;;;;0.88;86.22;101135.97;4974515;28;96573;-43
2021/12/23 10:37:14;;;;;;;4.53;2.92;;;;;;;0.96;86.20;101139.41;4973649;28;98162;-42
2021/12/23 10:39:43;;;;;;;19.10;8.85;;;;;;;0.98;85.81;101132.28;4974982;28;99044;-43
2021/12/23 10:42:09;;;;;;;18.85;6.50;;;;;;;0.91;86.00;101110.16;4973316;28;97426;-43
2021/12/23 10:44:35;;;;;;;5.53;2.95;;;;;;;0.93;85.90;101102.13;4974150;28;96810;-42
2021/12/23 10:47:00;;;;;;;10.00;4.60;;;;;;;0.92;85.93;101103.91;4974944;28;97335;-42
2021/12/23 10:49:44;;;;;;;8.23;3.17;;;;;;;0.92;85.87;101092.38;4974602;28;99224;-43
2021/12/23 10:52:19;;;;;;;6.25;3.38;;;;;;;1.04;86.05;101108.16;4974513;28;96571;-42
2021/12/23 11:00:23;;;;;;;;;;;;;;;1.24;85.83;101127.34;4974668;28;96958;-43
2021/12/23 11:03:27;;;;;;;10.48;5.20;;;;;;;1.29;86.07;101127.25;4973395;28;96651;-43
2021/12/23 11:06:12;;;;;;;8.93;3.78;;;;;;;1.33;85.56;101128.06;4972801;28;96927;-42
2021/12/23 11:29:06;;;;;;;9.27;6.15;;;;;;;1.90;85.10;101058.34;4975070;28;96565;-42
2021/12/23 11:37:36;;;;;;;24.23;8.43;;;;;;;2.04;85.01;101028.66;4975083;28;96569;-42
2021/12/23 11:40:11;;;;;;;15.48;8.27;;;;;;;2.03;84.63;101003.75;4974528;28;96802;-43
2021/12/23 11:43:02;;;;;;;3.72;3.13;;;;;;;1.97;84.60;100971.81;4958185;28;101053;-42
2021/12/23 11:45:24;;;;;;;19.92;8.25;;;;;;;2.04;84.74;100981.44;4974035;28;98747;-42
2021/12/23 11:47:49;;;;;;;27.67;10.18;;;;;;;2.05;84.93;100963.63;4976537;28;96565;-42
2021/12/23 11:50:19;;;;;;;17.27;6.45;;;;;;;2.21;85.00;100988.16;4977985;28;96685;-43
2021/12/23 11:52:47;;;;;;;18.58;6.70;;;;;;;2.11;84.82;100974.16;4977228;28;99707;-43
2021/12/23 11:55:25;;;;;;;18.30;7.43;;;;;;;2.22;84.44;100973.91;4975619;28;98966;-43
2021/12/23 11:57:52;;;;;;;29.42;6.70;;;;;;;2.17;84.42;100955.31;4976339;28;96659;-42
2021/12/23 12:00:29;;;;;;;14.95;6.25;;;;;;;2.31;84.17;100979.00;4977102;28;96727;-42
2021/12/23 12:03:03;;;;;;;14.98;6.47;;;;;;;2.27;84.54;100966.66;4977342;28;99519;-43
2021/12/23 12:05:29;;;;;;;14.52;5.88;;;;;;;2.35;84.56;100961.97;4977527;28;97460;-43
2021/12/23 12:08:15;;;;;;;12.95;5.78;;;;;;;2.39;84.83;100970.81;4976122;28;96562;-43
2021/12/23 12:10:42;;;;;;;11.73;6.57;;;;;;;2.38;84.45;100955.66;4977448;28;96670;-43
2021/12/23 12:13:11;;;;;;;12.45;7.30;;;;;;;2.27;84.99;100939.94;4975151;28;101019;-42
2021/12/23 12:15:39;;;;;;;23.25;5.15;;;;;;;2.39;84.77;100947.63;4975837;28;100783;-42
2021/12/23 12:18:07;;;;;;;22.15;8.60;;;;;;;2.23;84.39;100911.53;4977328;28;96583;-43
2021/12/23 12:20:56;;;;;;;21.98;7.30;;;;;;;2.29;84.37;100928.28;4976082;28;96802;-42
2021/12/23 12:23:33;;;;;;;12.32;6.13;;;;;;;2.33;84.89;100921.03;4977470;28;97061;-43
2021/12/23 12:26:05;;;;;;;10.45;4.95;;;;;;;2.41;85.17;100932.44;4975565;28;101470;-42
2021/12/23 12:28:35;;;;;;;;;;;;;;;2.45;84.73;100923.38;4977556;28;96624;-43